EmailTwitter


Surface observations / United Kingdom / EGTE (03839)

Regions: Quebec | Canada | USA | Europe | France | UK | Elsewhere
Station
Display
Info & Location for EGTE (03839) | Help decoding METAR

Weather Conditions observed on 2018/06/23 at 07:20 UTC at EXETER AIRPORT, UK (EGTE)

Temperature: 15.0 Celsius.

Dewpoint: 9.0 Celsius.

Relative Humidity: 67%

Winds: Variable at 4 km/h or 2 knots.

Mean Sea level Pressure: 103.00 kilopascals.

Coded METAR:

EGTE 230720Z VRB02KT CAVOK 15/09 Q1030=